sensor_id;sensor_type;location;lat;lon;timestamp;temperature;humidity
18648;DHT22;9453;50.294;18.644;2022-09-12T04:02:22;11.40;99.90
18648;DHT22;9453;50.294;18.644;2022-09-12T04:04:49;11.40;99.90
18648;DHT22;9453;50.294;18.644;2022-09-12T04:07:16;11.40;99.90
18648;DHT22;9453;50.294;18.644;2022-09-12T04:09:45;11.40;99.90
18648;DHT22;9453;50.294;18.644;2022-09-12T04:12:12;11.40;99.90
18648;DHT22;9453;50.294;18.644;2022-09-12T04:14:39;11.40;99.90
18648;DHT22;9453;50.294;18.644;2022-09-12T04:17:06;11.40;99.90
18648;DHT22;9453;50.294;18.644;2022-09-12T04:19:34;11.30;99.90
18648;DHT22;9453;50.294;18.644;2022-09-12T04:22:01;11.40;99.90
18648;DHT22;9453;50.294;18.644;2022-09-12T04:24:28;11.40;99.90
18648;DHT22;9453;50.294;18.644;2022-09-12T04:26:55;11.50;99.90
18648;DHT22;9453;50.294;18.644;2022-09-12T04:29:22;11.40;99.90
18648;DHT22;9453;50.294;18.644;2022-09-12T04:31:49;11.50;99.90
18648;DHT22;9453;50.294;18.644;2022-09-12T04:34:16;11.50;99.90
18648;DHT22;9453;50.294;18.644;2022-09-12T04:36:45;11.40;99.90
18648;DHT22;9453;50.294;18.644;2022-09-12T04:39:12;11.40;99.90
18648;DHT22;9453;50.294;18.644;2022-09-12T04:41:39;11.50;99.90
18648;DHT22;9453;50.294;18.644;2022-09-12T04:44:09;11.50;99.90
18648;DHT22;9453;50.294;18.644;2022-09-12T04:46:38;11.50;99.90
18648;DHT22;9453;50.294;18.644;2022-09-12T04:49:06;11.50;99.90
18648;DHT22;9453;50.294;18.644;2022-09-12T04:51:35;11.60;99.90
18648;DHT22;9453;50.294;18.644;2022-09-12T04:54:05;11.60;99.90
18648;DHT22;9453;50.294;18.644;2022-09-12T04:56:36;11.70;99.90
18648;DHT22;9453;50.294;18.644;2022-09-12T04:59:04;11.70;99.90
18648;DHT22;9453;50.294;18.644;2022-09-12T05:01:31;11.70;99.90
18648;DHT22;9453;50.294;18.644;2022-09-12T05:03:58;11.70;99.90
18648;DHT22;9453;50.294;18.644;2022-09-12T05:06:27;11.70;99.90
18648;DHT22;9453;50.294;18.644;2022-09-12T05:08:55;11.80;99.90
18648;DHT22;9453;50.294;18.644;2022-09-12T05:11:27;11.70;99.90
18648;DHT22;9453;50.294;18.644;2022-09-12T05:13:54;11.80;99.90
18648;DHT22;9453;50.294;18.644;2022-09-12T05:16:22;11.80;99.90
18648;DHT22;9453;50.294;18.644;2022-09-12T05:18:50;11.90;99.90
18648;DHT22;9453;50.294;18.644;2022-09-12T05:21:18;11.80;99.90
18648;DHT22;9453;50.294;18.644;2022-09-12T05:23:50;11.80;99.90
18648;DHT22;9453;50.294;18.644;2022-09-12T05:26:17;11.80;99.90
18648;DHT22;9453;50.294;18.644;2022-09-12T05:28:47;11.80;99.90
18648;DHT22;9453;50.294;18.644;2022-09-12T05:31:27;11.90;99.90
18648;DHT22;9453;50.294;18.644;2022-09-12T05:33:56;11.90;99.90
18648;DHT22;9453;50.294;18.644;2022-09-12T05:36:25;12.00;99.90
18648;DHT22;9453;50.294;18.644;2022-09-12T05:38:55;12.10;99.90
18648;DHT22;9453;50.294;18.644;2022-09-12T05:41:24;12.10;99.90
18648;DHT22;9453;50.294;18.644;2022-09-12T05:43:53;12.10;99.90
18648;DHT22;9453;50.294;18.644;2022-09-12T05:46:22;12.20;99.90
18648;DHT22;9453;50.294;18.644;2022-09-12T05:48:50;12.30;99.90
18648;DHT22;9453;50.294;18.644;2022-09-12T05:51:20;12.20;99.90
18648;DHT22;9453;50.294;18.644;2022-09-12T05:53:49;12.10;99.90
18648;DHT22;9453;50.294;18.644;2022-09-12T05:56:17;12.10;99.90
18648;DHT22;9453;50.294;18.644;2022-09-12T05:58:47;12.10;99.90
18648;DHT22;9453;50.294;18.644;2022-09-12T06:01:16;12.20;99.90
18648;DHT22;9453;50.294;18.644;2022-09-12T06:03:45;12.30;99.90
18648;DHT22;9453;50.294;18.644;2022-09-12T06:06:14;12.20;99.90
18648;DHT22;9453;50.294;18.644;2022-09-12T06:08:45;12.10;99.90
18648;DHT22;9453;50.294;18.644;2022-09-12T06:11:14;12.00;99.90
18648;DHT22;9453;50.294;18.644;2022-09-12T06:13:42;12.00;99.90
18648;DHT22;9453;50.294;18.644;2022-09-12T06:16:10;12.00;99.90
18648;DHT22;9453;50.294;18.644;2022-09-12T06:18:40;11.90;99.90
18648;DHT22;9453;50.294;18.644;2022-09-12T06:21:08;12.00;99.90
18648;DHT22;9453;50.294;18.644;2022-09-12T06:23:36;12.10;99.90
18648;DHT22;9453;50.294;18.644;2022-09-12T06:26:04;12.00;99.90
18648;DHT22;9453;50.294;18.644;2022-09-12T06:28:34;12.00;99.90
18648;DHT22;9453;50.294;18.644;2022-09-12T06:31:02;12.00;99.90
18648;DHT22;9453;50.294;18.644;2022-09-12T06:33:30;11.90;99.90
18648;DHT22;9453;50.294;18.644;2022-09-12T06:36:03;11.90;99.90
18648;DHT22;9453;50.294;18.644;2022-09-12T06:38:31;11.90;99.90
18648;DHT22;9453;50.294;18.644;2022-09-12T06:40:58;11.90;99.90
18648;DHT22;9453;50.294;18.644;2022-09-12T06:43:25;12.00;99.90
18648;DHT22;9453;50.294;18.644;2022-09-12T06:45:52;12.00;99.90
18648;DHT22;9453;50.294;18.644;2022-09-12T06:48:19;12.00;99.90
18648;DHT22;9453;50.294;18.644;2022-09-12T06:50:55;11.90;99.90
18648;DHT22;9453;50.294;18.644;2022-09-12T06:53:24;11.90;99.90
18648;DHT22;9453;50.294;18.644;2022-09-12T06:55:56;12.10;99.90
18648;DHT22;9453;50.294;18.644;2022-09-12T06:58:23;12.00;99.90
18648;DHT22;9453;50.294;18.644;2022-09-12T07:00:50;12.00;99.90
18648;DHT22;9453;50.294;18.644;2022-09-12T07:03:17;12.00;99.90
18648;DHT22;9453;50.294;18.644;2022-09-12T07:05:44;12.00;99.90
18648;DHT22;9453;50.294;18.644;2022-09-12T07:08:11;12.00;99.90
18648;DHT22;9453;50.294;18.644;2022-09-12T07:10:39;12.00;99.90
18648;DHT22;9453;50.294;18.644;2022-09-12T07:13:06;12.10;99.90
18648;DHT22;9453;50.294;18.644;2022-09-12T07:15:34;12.00;99.90
18648;DHT22;9453;50.294;18.644;2022-09-12T07:18:01;12.00;99.90
18648;DHT22;9453;50.294;18.644;2022-09-12T07:20:28;12.00;99.90
18648;DHT22;9453;50.294;18.644;2022-09-12T07:22:57;12.00;99.90
18648;DHT22;9453;50.294;18.644;2022-09-12T07:25:24;12.00;99.90
18648;DHT22;9453;50.294;18.644;2022-09-12T07:27:53;11.90;99.90
18648;DHT22;9453;50.294;18.644;2022-09-12T07:30:20;11.90;99.90
18648;DHT22;9453;50.294;18.644;2022-09-12T07:32:51;12.00;99.90
18648;DHT22;9453;50.294;18.644;2022-09-12T07:35:18;12.20;99.90
18648;DHT22;9453;50.294;18.644;2022-09-12T07:37:45;12.30;99.90
18648;DHT22;9453;50.294;18.644;2022-09-12T07:40:11;12.50;99.90
18648;DHT22;9453;50.294;18.644;2022-09-12T07:42:39;12.70;99.90
18648;DHT22;9453;50.294;18.644;2022-09-12T07:45:08;13.00;99.90
18648;DHT22;9453;50.294;18.644;2022-09-12T07:47:35;13.30;99.90
18648;DHT22;9453;50.294;18.644;2022-09-12T07:50:02;13.40;99.90
18648;DHT22;9453;50.294;18.644;2022-09-12T07:52:29;13.40;99.90
18648;DHT22;9453;50.294;18.644;2022-09-12T07:54:56;13.60;99.90
18648;DHT22;9453;50.294;18.644;2022-09-12T07:57:23;13.90;99.90
18648;DHT22;9453;50.294;18.644;2022-09-12T07:59:50;14.10;99.90
18648;DHT22;9453;50.294;18.644;2022-09-12T08:02:18;14.20;99.90
18648;DHT22;9453;50.294;18.644;2022-09-12T08:04:46;14.30;99.90
18648;DHT22;9453;50.294;18.644;2022-09-12T08:07:13;14.60;99.90
18648;DHT22;9453;50.294;18.644;2022-09-12T08:09:40;14.80;99.90
18648;DHT22;9453;50.294;18.644;2022-09-12T08:12:07;14.90;99.90
18648;DHT22;9453;50.294;18.644;2022-09-12T08:14:34;15.00;99.90
18648;DHT22;9453;50.294;18.644;2022-09-12T08:17:01;15.30;99.90
18648;DHT22;9453;50.294;18.644;2022-09-12T08:19:29;15.40;99.90
18648;DHT22;9453;50.294;18.644;2022-09-12T08:21:56;15.40;99.90
18648;DHT22;9453;50.294;18.644;2022-09-12T08:24:23;15.40;99.90
18648;DHT22;9453;50.294;18.644;2022-09-12T08:26:50;15.30;99.90
18648;DHT22;9453;50.294;18.644;2022-09-12T08:29:17;15.30;99.90
18648;DHT22;9453;50.294;18.644;2022-09-12T08:31:44;15.20;99.90
18648;DHT22;9453;50.294;18.644;2022-09-12T08:34:11;15.10;99.90
18648;DHT22;9453;50.294;18.644;2022-09-12T08:36:39;15.20;99.90
18648;DHT22;9453;50.294;18.644;2022-09-12T08:39:06;15.40;99.90
18648;DHT22;9453;50.294;18.644;2022-09-12T08:41:37;15.50;99.90
18648;DHT22;9453;50.294;18.644;2022-09-12T08:47:14;15.70;99.90
18648;DHT22;9453;50.294;18.644;2022-09-12T08:49:50;15.60;99.90
18648;DHT22;9453;50.294;18.644;2022-09-12T08:52:24;15.70;99.90
18648;DHT22;9453;50.294;18.644;2022-09-12T08:54:53;15.70;99.90
18648;DHT22;9453;50.294;18.644;2022-09-12T08:57:21;15.80;99.90
18648;DHT22;9453;50.294;18.644;2022-09-12T08:59:49;15.80;99.90
18648;DHT22;9453;50.294;18.644;2022-09-12T09:02:45;15.80;99.90
18648;DHT22;9453;50.294;18.644;2022-09-12T09:05:18;15.70;99.90
18648;DHT22;9453;50.294;18.644;2022-09-12T09:08:06;15.70;99.90
18648;DHT22;9453;50.294;18.644;2022-09-12T09:10:46;16.00;99.90
18648;DHT22;9453;50.294;18.644;2022-09-12T09:13:20;16.10;99.90
18648;DHT22;9453;50.294;18.644;2022-09-12T09:16:09;15.90;99.90
18648;DHT22;9453;50.294;18.644;2022-09-12T09:18:42;16.00;99.90
18648;DHT22;9453;50.294;18.644;2022-09-12T09:21:16;16.00;99.90
18648;DHT22;9453;50.294;18.644;2022-09-12T09:23:50;15.90;99.90
18648;DHT22;9453;50.294;18.644;2022-09-12T09:26:21;16.10;99.90
18648;DHT22;9453;50.294;18.644;2022-09-12T09:28:54;16.20;99.90
18648;DHT22;9453;50.294;18.644;2022-09-12T09:31:25;16.30;99.10
18648;DHT22;9453;50.294;18.644;2022-09-12T09:33:53;16.60;98.80
18648;DHT22;9453;50.294;18.644;2022-09-12T09:36:21;16.60;97.70
18648;DHT22;9453;50.294;18.644;2022-09-12T09:38:57;16.60;98.30
18648;DHT22;9453;50.294;18.644;2022-09-12T09:41:40;16.60;97.70
18648;DHT22;9453;50.294;18.644;2022-09-12T09:44:10;16.50;97.80
18648;DHT22;9453;50.294;18.644;2022-09-12T09:46:37;16.50;96.80
18648;DHT22;9453;50.294;18.644;2022-09-12T09:49:05;16.60;96.00
18648;DHT22;9453;50.294;18.644;2022-09-12T09:51:35;16.80;94.90
18648;DHT22;9453;50.294;18.644;2022-09-12T09:54:12;17.00;93.30
18648;DHT22;9453;50.294;18.644;2022-09-12T09:56:43;16.90;92.40
18648;DHT22;9453;50.294;18.644;2022-09-12T09:59:12;16.80;92.00
18648;DHT22;9453;50.294;18.644;2022-09-12T10:01:45;16.90;92.90
18648;DHT22;9453;50.294;18.644;2022-09-12T10:04:19;17.10;92.50
18648;DHT22;9453;50.294;18.644;2022-09-12T10:06:47;17.30;91.50
18648;DHT22;9453;50.294;18.644;2022-09-12T10:09:26;17.50;91.40
18648;DHT22;9453;50.294;18.644;2022-09-12T10:11:54;17.30;90.90
18648;DHT22;9453;50.294;18.644;2022-09-12T10:14:33;17.30;91.60
18648;DHT22;9453;50.294;18.644;2022-09-12T10:17:02;17.40;92.20
18648;DHT22;9453;50.294;18.644;2022-09-12T10:19:34;17.50;92.40
18648;DHT22;9453;50.294;18.644;2022-09-12T10:22:02;17.80;92.20
18648;DHT22;9453;50.294;18.644;2022-09-12T10:24:33;17.70;91.60
18648;DHT22;9453;50.294;18.644;2022-09-12T10:27:13;17.70;91.60
18648;DHT22;9453;50.294;18.644;2022-09-12T10:29:44;17.50;91.80
18648;DHT22;9453;50.294;18.644;2022-09-12T10:32:20;17.50;92.60
18648;DHT22;9453;50.294;18.644;2022-09-12T10:34:48;17.50;92.70
18648;DHT22;9453;50.294;18.644;2022-09-12T10:37:23;17.60;92.80
18648;DHT22;9453;50.294;18.644;2022-09-12T10:39:54;17.60;92.30
18648;DHT22;9453;50.294;18.644;2022-09-12T10:42:45;17.50;92.30
18648;DHT22;9453;50.294;18.644;2022-09-12T10:45:20;17.60;93.10
18648;DHT22;9453;50.294;18.644;2022-09-12T10:47:49;17.60;92.30
18648;DHT22;9453;50.294;18.644;2022-09-12T10:50:22;17.60;91.70
18648;DHT22;9453;50.294;18.644;2022-09-12T10:52:50;17.70;91.90
18648;DHT22;9453;50.294;18.644;2022-09-12T10:55:22;17.70;91.90
18648;DHT22;9453;50.294;18.644;2022-09-12T10:58:03;17.70;92.40
18648;DHT22;9453;50.294;18.644;2022-09-12T11:00:36;17.80;92.40
18648;DHT22;9453;50.294;18.644;2022-09-12T11:03:14;17.70;92.90
18648;DHT22;9453;50.294;18.644;2022-09-12T11:05:50;17.80;92.90
18648;DHT22;9453;50.294;18.644;2022-09-12T11:08:27;17.70;92.00
18648;DHT22;9453;50.294;18.644;2022-09-12T11:11:02;17.60;92.10
18648;DHT22;9453;50.294;18.644;2022-09-12T11:13:51;17.60;92.30
18648;DHT22;9453;50.294;18.644;2022-09-12T11:16:26;17.50;92.30
18648;DHT22;9453;50.294;18.644;2022-09-12T11:19:11;17.40;92.80
18648;DHT22;9453;50.294;18.644;2022-09-12T11:21:51;17.50;92.00
18648;DHT22;9453;50.294;18.644;2022-09-12T11:24:40;17.60;92.70
18648;DHT22;9453;50.294;18.644;2022-09-12T11:27:29;17.80;92.50
18648;DHT22;9453;50.294;18.644;2022-09-12T11:29:58;17.70;92.60
18648;DHT22;9453;50.294;18.644;2022-09-12T11:32:45;17.60;92.50
18648;DHT22;9453;50.294;18.644;2022-09-12T11:35:22;17.50;93.50
18648;DHT22;9453;50.294;18.644;2022-09-12T11:40:54;17.10;94.20
18648;DHT22;9453;50.294;18.644;2022-09-12T11:43:31;17.00;94.90
18648;DHT22;9453;50.294;18.644;2022-09-12T11:46:05;17.00;94.70
18648;DHT22;9453;50.294;18.644;2022-09-12T11:48:42;17.10;95.70
18648;DHT22;9453;50.294;18.644;2022-09-12T11:51:17;17.40;95.70
18648;DHT22;9453;50.294;18.644;2022-09-12T11:53:58;17.70;94.50
18648;DHT22;9453;50.294;18.644;2022-09-12T11:56:25;17.70;93.30
18648;DHT22;9453;50.294;18.644;2022-09-12T11:59:00;17.60;93.80
18648;DHT22;9453;50.294;18.644;2022-09-12T12:01:33;17.50;94.00
18648;DHT22;9453;50.294;18.644;2022-09-12T12:04:06;17.50;93.70
18648;DHT22;9453;50.294;18.644;2022-09-12T12:06:44;17.60;94.40
18648;DHT22;9453;50.294;18.644;2022-09-12T12:09:12;17.70;95.10
18648;DHT22;9453;50.294;18.644;2022-09-12T12:11:43;17.70;94.60
18648;DHT22;9453;50.294;18.644;2022-09-12T12:14:16;17.80;94.20
18648;DHT22;9453;50.294;18.644;2022-09-12T12:16:44;17.90;93.30
18648;DHT22;9453;50.294;18.644;2022-09-12T12:19:29;17.70;91.70
18648;DHT22;9453;50.294;18.644;2022-09-12T12:22:05;17.80;92.50
18648;DHT22;9453;50.294;18.644;2022-09-12T12:24:33;18.10;93.40
18648;DHT22;9453;50.294;18.644;2022-09-12T12:27:01;18.30;93.20
18648;DHT22;9453;50.294;18.644;2022-09-12T12:29:44;18.50;94.00
18648;DHT22;9453;50.294;18.644;2022-09-12T12:32:20;18.40;92.00
18648;DHT22;9453;50.294;18.644;2022-09-12T12:34:47;18.20;92.10
18648;DHT22;9453;50.294;18.644;2022-09-12T12:37:50;17.90;92.60
18648;DHT22;9453;50.294;18.644;2022-09-12T12:40:24;17.80;93.50
18648;DHT22;9453;50.294;18.644;2022-09-12T12:43:02;17.70;93.30
18648;DHT22;9453;50.294;18.644;2022-09-12T12:45:58;17.60;92.40
18648;DHT22;9453;50.294;18.644;2022-09-12T12:48:32;17.40;92.30
18648;DHT22;9453;50.294;18.644;2022-09-12T12:51:22;17.20;93.10
18648;DHT22;9453;50.294;18.644;2022-09-12T12:53:52;17.10;94.00
18648;DHT22;9453;50.294;18.644;2022-09-12T12:56:34;17.10;94.50
18648;DHT22;9453;50.294;18.644;2022-09-12T12:59:14;17.20;94.90
18648;DHT22;9453;50.294;18.644;2022-09-12T13:01:49;17.50;94.20
18648;DHT22;9453;50.294;18.644;2022-09-12T13:04:18;17.90;94.30
18648;DHT22;9453;50.294;18.644;2022-09-12T13:06:55;18.20;94.20
18648;DHT22;9453;50.294;18.644;2022-09-12T13:09:27;18.40;93.90
18648;DHT22;9453;50.294;18.644;2022-09-12T13:11:59;18.50;92.60
18648;DHT22;9453;50.294;18.644;2022-09-12T13:14:46;18.40;91.90
18648;DHT22;9453;50.294;18.644;2022-09-12T13:17:19;18.30;91.70
18648;DHT22;9453;50.294;18.644;2022-09-12T13:19:49;18.50;92.30
18648;DHT22;9453;50.294;18.644;2022-09-12T13:22:21;18.70;92.70
18648;DHT22;9453;50.294;18.644;2022-09-12T13:24:49;18.80;91.30
18648;DHT22;9453;50.294;18.644;2022-09-12T13:27:18;18.70;91.40
18648;DHT22;9453;50.294;18.644;2022-09-12T13:29:46;18.70;91.60
18648;DHT22;9453;50.294;18.644;2022-09-12T13:32:14;18.50;91.80
18648;DHT22;9453;50.294;18.644;2022-09-12T13:34:54;18.30;92.00
18648;DHT22;9453;50.294;18.644;2022-09-12T13:37:44;18.00;92.60
18648;DHT22;9453;50.294;18.644;2022-09-12T13:40:28;17.50;93.50
18648;DHT22;9453;50.294;18.644;2022-09-12T13:43:19;17.40;94.60
18648;DHT22;9453;50.294;18.644;2022-09-12T13:45:51;17.20;95.40
18648;DHT22;9453;50.294;18.644;2022-09-12T13:48:22;17.10;95.50
18648;DHT22;9453;50.294;18.644;2022-09-12T13:50:53;17.00;96.00
18648;DHT22;9453;50.294;18.644;2022-09-12T13:53:23;16.90;97.00
18648;DHT22;9453;50.294;18.644;2022-09-12T13:55:53;16.90;97.10
18648;DHT22;9453;50.294;18.644;2022-09-12T13:58:22;16.90;97.20
18648;DHT22;9453;50.294;18.644;2022-09-12T14:01:00;16.90;98.30
18648;DHT22;9453;50.294;18.644;2022-09-12T14:03:30;16.90;97.20
18648;DHT22;9453;50.294;18.644;2022-09-12T14:06:15;16.80;96.40
18648;DHT22;9453;50.294;18.644;2022-09-12T14:08:45;16.80;96.30
18648;DHT22;9453;50.294;18.644;2022-09-12T14:11:22;16.80;97.10
18648;DHT22;9453;50.294;18.644;2022-09-12T14:13:50;16.80;97.20
18648;DHT22;9453;50.294;18.644;2022-09-12T14:16:17;16.80;96.80
18648;DHT22;9453;50.294;18.644;2022-09-12T14:18:47;16.90;97.60
18648;DHT22;9453;50.294;18.644;2022-09-12T14:21:25;16.90;96.60
18648;DHT22;9453;50.294;18.644;2022-09-12T14:23:56;16.80;96.60
18648;DHT22;9453;50.294;18.644;2022-09-12T14:26:24;16.90;97.60
18648;DHT22;9453;50.294;18.644;2022-09-12T14:28:52;17.00;97.00
18648;DHT22;9453;50.294;18.644;2022-09-12T14:31:23;17.10;96.20
18648;DHT22;9453;50.294;18.644;2022-09-12T14:33:53;17.00;96.10
18648;DHT22;9453;50.294;18.644;2022-09-12T14:36:23;17.00;96.70
18648;DHT22;9453;50.294;18.644;2022-09-12T14:38:53;16.90;96.50
18648;DHT22;9453;50.294;18.644;2022-09-12T14:41:23;16.90;97.00
18648;DHT22;9453;50.294;18.644;2022-09-12T14:43:53;16.80;97.40
18648;DHT22;9453;50.294;18.644;2022-09-12T14:46:24;16.70;97.20
18648;DHT22;9453;50.294;18.644;2022-09-12T14:48:55;16.70;97.70
18648;DHT22;9453;50.294;18.644;2022-09-12T14:51:26;16.80;98.70
18648;DHT22;9453;50.294;18.644;2022-09-12T14:53:53;17.00;98.20
18648;DHT22;9453;50.294;18.644;2022-09-12T14:56:37;17.30;97.80
18648;DHT22;9453;50.294;18.644;2022-09-12T14:59:27;17.50;96.00
18648;DHT22;9453;50.294;18.644;2022-09-12T15:02:18;17.70;95.50
18648;DHT22;9453;50.294;18.644;2022-09-12T15:04:52;17.70;95.20
18648;DHT22;9453;50.294;18.644;2022-09-12T15:07:30;17.50;94.30
18648;DHT22;9453;50.294;18.644;2022-09-12T15:10:00;17.70;94.90
18648;DHT22;9453;50.294;18.644;2022-09-12T15:12:27;17.80;95.40
18648;DHT22;9453;50.294;18.644;2022-09-12T15:14:57;17.90;94.90
18648;DHT22;9453;50.294;18.644;2022-09-12T15:17:25;18.00;94.80
18648;DHT22;9453;50.294;18.644;2022-09-12T15:19:53;17.90;94.40
18648;DHT22;9453;50.294;18.644;2022-09-12T15:22:22;17.80;94.10
18648;DHT22;9453;50.294;18.644;2022-09-12T15:24:50;17.70;94.70
18648;DHT22;9453;50.294;18.644;2022-09-12T15:27:18;17.60;95.10
18648;DHT22;9453;50.294;18.644;2022-09-12T15:29:45;17.40;94.80
18648;DHT22;9453;50.294;18.644;2022-09-12T15:32:22;17.30;95.30
18648;DHT22;9453;50.294;18.644;2022-09-12T15:34:49;17.20;95.90
18648;DHT22;9453;50.294;18.644;2022-09-12T15:37:18;17.10;95.80
18648;DHT22;9453;50.294;18.644;2022-09-12T15:39:45;17.00;96.10
18648;DHT22;9453;50.294;18.644;2022-09-12T15:42:13;17.00;96.40
18648;DHT22;9453;50.294;18.644;2022-09-12T15:44:40;16.90;96.60
18648;DHT22;9453;50.294;18.644;2022-09-12T15:47:12;16.90;97.10
18648;DHT22;9453;50.294;18.644;2022-09-12T15:49:39;16.90;97.50
18648;DHT22;9453;50.294;18.644;2022-09-12T15:52:06;16.90;98.20
18648;DHT22;9453;50.294;18.644;2022-09-12T15:54:37;16.90;98.00
18648;DHT22;9453;50.294;18.644;2022-09-12T15:57:04;16.80;97.90
18648;DHT22;9453;50.294;18.644;2022-09-12T15:59:31;16.80;97.90
18648;DHT22;9453;50.294;18.644;2022-09-12T16:02:03;16.80;98.10
18648;DHT22;9453;50.294;18.644;2022-09-12T16:04:30;16.80;98.10
18648;DHT22;9453;50.294;18.644;2022-09-12T16:06:57;16.70;98.40
18648;DHT22;9453;50.294;18.644;2022-09-12T16:09:33;16.70;98.50
18648;DHT22;9453;50.294;18.644;2022-09-12T16:12:08;16.60;99.20
18648;DHT22;9453;50.294;18.644;2022-09-12T16:14:35;16.50;99.40
18648;DHT22;9453;50.294;18.644;2022-09-12T16:17:02;16.40;99.90
18648;DHT22;9453;50.294;18.644;2022-09-12T16:19:29;16.30;99.90
18648;DHT22;9453;50.294;18.644;2022-09-12T16:21:56;16.20;99.90
18648;DHT22;9453;50.294;18.644;2022-09-12T16:24:22;16.10;99.90
18648;DHT22;9453;50.294;18.644;2022-09-12T16:26:49;16.10;99.90
18648;DHT22;9453;50.294;18.644;2022-09-12T16:29:19;16.00;99.90
18648;DHT22;9453;50.294;18.644;2022-09-12T16:31:46;16.00;99.90
18648;DHT22;9453;50.294;18.644;2022-09-12T16:34:13;15.90;99.90
18648;DHT22;9453;50.294;18.644;2022-09-12T16:36:40;15.90;99.90
18648;DHT22;9453;50.294;18.644;2022-09-12T16:39:09;15.90;99.90
18648;DHT22;9453;50.294;18.644;2022-09-12T16:41:36;15.80;99.90
18648;DHT22;9453;50.294;18.644;2022-09-12T16:44:06;15.80;99.90
18648;DHT22;9453;50.294;18.644;2022-09-12T16:46:36;15.70;99.90
18648;DHT22;9453;50.294;18.644;2022-09-12T16:49:03;15.60;99.90
18648;DHT22;9453;50.294;18.644;2022-09-12T16:51:33;15.60;99.90
18648;DHT22;9453;50.294;18.644;2022-09-12T16:54:01;15.50;99.90
18648;DHT22;9453;50.294;18.644;2022-09-12T16:56:28;15.40;99.90
18648;DHT22;9453;50.294;18.644;2022-09-12T16:58:55;15.40;99.90
18648;DHT22;9453;50.294;18.644;2022-09-12T17:01:24;15.30;99.90
18648;DHT22;9453;50.294;18.644;2022-09-12T17:03:53;15.30;99.90
18648;DHT22;9453;50.294;18.644;2022-09-12T17:06:21;15.30;99.90
18648;DHT22;9453;50.294;18.644;2022-09-12T17:08:49;15.20;99.90
18648;DHT22;9453;50.294;18.644;2022-09-12T17:11:19;15.20;99.90
18648;DHT22;9453;50.294;18.644;2022-09-12T17:13:47;15.10;99.90
18648;DHT22;9453;50.294;18.644;2022-09-12T17:16:19;15.00;99.90
18648;DHT22;9453;50.294;18.644;2022-09-12T17:18:46;15.00;99.90
18648;DHT22;9453;50.294;18.644;2022-09-12T17:21:15;14.90;99.90
18648;DHT22;9453;50.294;18.644;2022-09-12T17:23:42;14.90;99.90
18648;DHT22;9453;50.294;18.644;2022-09-12T17:26:10;14.80;99.90
18648;DHT22;9453;50.294;18.644;2022-09-12T17:28:38;14.80;99.90
18648;DHT22;9453;50.294;18.644;2022-09-12T17:31:06;14.70;99.90
18648;DHT22;9453;50.294;18.644;2022-09-12T17:33:34;14.70;99.90
18648;DHT22;9453;50.294;18.644;2022-09-12T17:36:01;14.60;99.90
18648;DHT22;9453;50.294;18.644;2022-09-12T17:38:32;14.60;99.90
18648;DHT22;9453;50.294;18.644;2022-09-12T17:41:04;14.50;99.90
18648;DHT22;9453;50.294;18.644;2022-09-12T17:43:31;14.50;99.90
18648;DHT22;9453;50.294;18.644;2022-09-12T17:45:58;14.40;99.90
18648;DHT22;9453;50.294;18.644;2022-09-12T17:48:25;14.40;99.90
18648;DHT22;9453;50.294;18.644;2022-09-12T17:50:52;14.30;99.90
18648;DHT22;9453;50.294;18.644;2022-09-12T17:53:19;14.30;99.90
18648;DHT22;9453;50.294;18.644;2022-09-12T17:55:47;14.30;99.90
18648;DHT22;9453;50.294;18.644;2022-09-12T17:58:14;14.20;99.90
18648;DHT22;9453;50.294;18.644;2022-09-12T18:00:42;14.20;99.90
18648;DHT22;9453;50.294;18.644;2022-09-12T18:03:26;14.20;99.90
18648;DHT22;9453;50.294;18.644;2022-09-12T18:05:55;14.10;99.90
18648;DHT22;9453;50.294;18.644;2022-09-12T18:08:23;14.00;99.90
18648;DHT22;9453;50.294;18.644;2022-09-12T18:10:51;14.00;99.90
18648;DHT22;9453;50.294;18.644;2022-09-12T18:13:18;13.90;99.90
18648;DHT22;9453;50.294;18.644;2022-09-12T18:15:45;13.90;99.90
18648;DHT22;9453;50.294;18.644;2022-09-12T18:18:13;13.90;99.90
18648;DHT22;9453;50.294;18.644;2022-09-12T18:20:48;13.80;99.90
18648;DHT22;9453;50.294;18.644;2022-09-12T18:23:16;13.80;99.90
18648;DHT22;9453;50.294;18.644;2022-09-12T18:25:42;13.80;99.90
18648;DHT22;9453;50.294;18.644;2022-09-12T18:28:11;13.70;99.90
18648;DHT22;9453;50.294;18.644;2022-09-12T18:30:38;13.70;99.90
18648;DHT22;9453;50.294;18.644;2022-09-12T18:33:06;13.70;99.90
18648;DHT22;9453;50.294;18.644;2022-09-12T18:35:36;13.70;99.90
18648;DHT22;9453;50.294;18.644;2022-09-12T18:38:03;13.70;99.90
18648;DHT22;9453;50.294;18.644;2022-09-12T18:40:30;13.70;99.90
18648;DHT22;9453;50.294;18.644;2022-09-12T18:42:57;13.70;99.90
18648;DHT22;9453;50.294;18.644;2022-09-12T18:45:26;13.70;99.90
18648;DHT22;9453;50.294;18.644;2022-09-12T18:47:53;13.60;99.90
18648;DHT22;9453;50.294;18.644;2022-09-12T18:50:20;13.60;99.90
18648;DHT22;9453;50.294;18.644;2022-09-12T18:52:50;13.60;99.90
18648;DHT22;9453;50.294;18.644;2022-09-12T18:55:17;13.50;99.90
18648;DHT22;9453;50.294;18.644;2022-09-12T18:57:44;13.40;99.90
18648;DHT22;9453;50.294;18.644;2022-09-12T19:00:12;13.40;99.90
18648;DHT22;9453;50.294;18.644;2022-09-12T19:02:42;13.40;99.90
18648;DHT22;9453;50.294;18.644;2022-09-12T19:05:09;13.40;99.90
18648;DHT22;9453;50.294;18.644;2022-09-12T19:07:37;13.30;99.90
18648;DHT22;9453;50.294;18.644;2022-09-12T19:10:05;13.30;99.90
18648;DHT22;9453;50.294;18.644;2022-09-12T19:12:33;13.40;99.90
18648;DHT22;9453;50.294;18.644;2022-09-12T19:15:00;13.30;99.90
18648;DHT22;9453;50.294;18.644;2022-09-12T19:17:27;13.30;99.90
18648;DHT22;9453;50.294;18.644;2022-09-12T19:19:55;13.30;99.90
18648;DHT22;9453;50.294;18.644;2022-09-12T19:22:22;13.30;99.90
18648;DHT22;9453;50.294;18.644;2022-09-12T19:24:49;13.20;99.90
18648;DHT22;9453;50.294;18.644;2022-09-12T19:27:16;13.20;99.90
18648;DHT22;9453;50.294;18.644;2022-09-12T19:29:43;13.20;99.90
18648;DHT22;9453;50.294;18.644;2022-09-12T19:32:10;13.20;99.90
18648;DHT22;9453;50.294;18.644;2022-09-12T19:34:37;13.10;99.90
18648;DHT22;9453;50.294;18.644;2022-09-12T19:37:05;13.20;99.90
18648;DHT22;9453;50.294;18.644;2022-09-12T19:39:32;13.10;99.90
18648;DHT22;9453;50.294;18.644;2022-09-12T19:41:59;13.10;99.90
18648;DHT22;9453;50.294;18.644;2022-09-12T19:44:26;13.10;99.90
18648;DHT22;9453;50.294;18.644;2022-09-12T19:46:53;13.10;99.90
18648;DHT22;9453;50.294;18.644;2022-09-12T19:49:20;13.00;99.90
18648;DHT22;9453;50.294;18.644;2022-09-12T19:51:47;13.00;99.90
18648;DHT22;9453;50.294;18.644;2022-09-12T19:54:15;13.00;99.90
18648;DHT22;9453;50.294;18.644;2022-09-12T19:56:42;13.00;99.90
18648;DHT22;9453;50.294;18.644;2022-09-12T19:59:10;12.90;99.90